Time;durP1;ratioP1;P1;durP2;ratioP2;P2;SDS_P1;SDS_P2;PMS_P1;PMS_P2;Temp;Humidity;BMP_temperature;BMP_pressure;BME280_temperature;BME280_humidity;BME280_pressure;Samples;Min_cycle;Max_cycle;Signal;HPM_P1;HPM_P2
2021/12/12 00:00:53;;;;;;;23.48;13.85;;;;;;;3.28;100.00;97055.97;5028532;28;20467;-48
2021/12/12 00:03:34;;;;;;;20.92;14.35;;;;;;;3.29;100.00;97060.25;5015239;28;20072;-51
2021/12/12 00:06:06;;;;;;;23.05;15.02;;;;;;;3.91;100.00;97062.81;5022375;28;20075;-51
2021/12/12 00:08:35;;;;;;;22.25;14.68;;;;;;;3.62;100.00;97067.13;5020828;28;20690;-46
2021/12/12 00:11:07;;;;;;;20.73;13.82;;;;;;;4.14;100.00;97071.94;5018008;28;20069;-50
2021/12/12 00:13:38;;;;;;;20.73;13.70;;;;;;;4.19;100.00;97067.28;5019107;28;20092;-49
2021/12/12 00:16:09;;;;;;;20.95;14.27;;;;;;;3.70;100.00;97078.78;5026451;28;20088;-49
2021/12/12 00:18:38;;;;;;;19.95;13.55;;;;;;;3.51;100.00;97085.94;5023437;28;20069;-49
2021/12/12 00:21:08;;;;;;;18.05;13.25;;;;;;;3.73;100.00;97089.03;5017395;28;20075;-49
2021/12/12 00:23:37;;;;;;;20.17;14.13;;;;;;;3.67;100.00;97080.72;5024246;28;20069;-52
2021/12/12 00:26:06;;;;;;;18.00;12.60;;;;;;;4.02;100.00;97092.56;5022213;28;20069;-48
2021/12/12 00:28:35;;;;;;;19.20;13.43;;;;;;;3.59;100.00;97085.53;5023634;28;20069;-50
2021/12/12 00:31:09;;;;;;;18.48;12.32;;;;;;;3.57;100.00;97099.47;5013858;28;20075;-52
2021/12/12 00:33:41;;;;;;;19.23;13.77;;;;;;;4.04;100.00;97093.34;5020415;28;20139;-49
2021/12/12 00:36:11;;;;;;;20.00;14.07;;;;;;;3.88;100.00;97089.94;5022914;28;20522;-46
2021/12/12 00:38:40;;;;;;;21.38;13.50;;;;;;;4.05;100.00;97091.56;5029015;28;20073;-47
2021/12/12 00:41:10;;;;;;;18.67;13.35;;;;;;;3.86;100.00;97090.97;5021370;28;20064;-49
2021/12/12 00:43:42;;;;;;;20.02;13.10;;;;;;;3.85;100.00;97084.03;5025777;28;20072;-47
2021/12/12 00:46:12;;;;;;;18.35;12.68;;;;;;;3.53;100.00;97094.53;5020390;28;20068;-49
2021/12/12 00:48:44;;;;;;;21.27;13.80;;;;;;;3.47;100.00;97098.31;5022690;28;20061;-49
2021/12/12 00:51:14;;;;;;;19.88;13.32;;;;;;;3.49;100.00;97096.47;5019321;28;20467;-47
2021/12/12 00:53:43;;;;;;;17.73;12.88;;;;;;;3.98;100.00;97105.91;5022863;28;20076;-49
2021/12/12 00:56:13;;;;;;;18.48;12.60;;;;;;;3.94;100.00;97104.41;5025953;28;20100;-49
2021/12/12 00:58:42;;;;;;;18.27;13.30;;;;;;;3.78;100.00;97104.41;5022498;28;20068;-46
2021/12/12 01:01:16;;;;;;;20.27;12.55;;;;;;;4.21;100.00;97117.63;5023837;28;20100;-48
2021/12/12 01:03:49;;;;;;;17.00;12.02;;;;;;;4.11;100.00;97106.88;5022348;28;20064;-46
2021/12/12 01:06:20;;;;;;;18.88;12.68;;;;;;;3.95;100.00;97101.69;5024097;28;20069;-48
2021/12/12 01:08:49;;;;;;;17.85;13.10;;;;;;;4.27;100.00;97093.78;5019441;28;20064;-46
2021/12/12 01:11:21;;;;;;;19.50;13.60;;;;;;;4.31;100.00;97095.28;5022083;28;20519;-47
2021/12/12 01:13:50;;;;;;;18.52;12.65;;;;;;;4.36;100.00;97108.06;5023721;28;20065;-50
2021/12/12 01:16:21;;;;;;;19.80;13.20;;;;;;;4.38;100.00;97114.88;5026825;28;20085;-47
2021/12/12 01:18:54;;;;;;;19.27;12.88;;;;;;;4.29;100.00;97120.63;5023628;28;20586;-50
2021/12/12 01:21:26;;;;;;;20.00;13.07;;;;;;;4.04;100.00;97123.81;5021887;28;20069;-49
2021/12/12 01:23:58;;;;;;;20.45;13.20;;;;;;;4.11;100.00;97125.16;5025673;28;20076;-49
2021/12/12 01:26:28;;;;;;;22.02;12.27;;;;;;;3.84;100.00;97124.94;5025788;28;20076;-52
2021/12/12 01:28:58;;;;;;;18.50;12.18;;;;;;;3.82;100.00;97124.22;5026967;28;20132;-46
2021/12/12 01:31:31;;;;;;;16.77;11.37;;;;;;;3.71;100.00;97126.56;5021058;28;20088;-50
2021/12/12 01:34:10;;;;;;;18.88;12.50;;;;;;;3.92;100.00;97133.22;5026351;28;20640;-50
2021/12/12 01:36:52;;;;;;;18.17;11.27;;;;;;;3.85;100.00;97131.84;5022391;28;20074;-46
2021/12/12 01:39:23;;;;;;;17.48;12.32;;;;;;;3.83;100.00;97131.09;5021391;28;20064;-49
2021/12/12 01:41:56;;;;;;;17.10;11.30;;;;;;;3.92;100.00;97138.41;5032045;28;20527;-49
2021/12/12 01:44:27;;;;;;;20.13;12.07;;;;;;;3.94;100.00;97140.94;5027084;28;20076;-48
2021/12/12 01:47:10;;;;;;;18.05;11.73;;;;;;;3.72;100.00;97141.31;5026021;28;20065;-46
2021/12/12 01:49:43;;;;;;;16.83;12.00;;;;;;;3.86;100.00;97137.94;5020591;28;20284;-49
2021/12/12 01:52:16;;;;;;;19.15;12.35;;;;;;;3.74;100.00;97142.03;5029741;28;20474;-52
2021/12/12 01:54:46;;;;;;;17.02;12.23;;;;;;;4.10;100.00;97126.09;5019526;28;20477;-47
2021/12/12 01:57:17;;;;;;;;;;;;;;;4.04;100.00;97136.88;5023937;28;20060;-47
2021/12/12 01:59:47;;;;;;;18.88;12.73;;;;;;;4.23;100.00;97131.41;5019898;28;20469;-50
2021/12/12 02:02:19;;;;;;;19.52;12.57;;;;;;;3.99;100.00;97139.75;5026129;28;20570;-47
2021/12/12 02:04:54;;;;;;;19.42;12.32;;;;;;;4.36;100.00;97136.78;5029525;28;20061;-50
2021/12/12 02:07:25;;;;;;;18.08;12.77;;;;;;;4.38;100.00;97140.97;5023826;28;20485;-50
2021/12/12 02:09:54;;;;;;;19.23;13.02;;;;;;;4.11;100.00;97139.97;5025741;28;20069;-47
2021/12/12 02:12:24;;;;;;;17.55;12.45;;;;;;;4.49;100.00;97143.81;5021536;28;20064;-50
2021/12/12 02:14:53;;;;;;;19.40;12.17;;;;;;;4.37;100.00;97152.38;5016516;28;20549;-46
2021/12/12 02:17:29;;;;;;;18.80;12.27;;;;;;;3.75;100.00;97155.03;5023071;28;20091;-50
2021/12/12 02:20:06;;;;;;;18.52;12.30;;;;;;;4.23;100.00;97147.06;5022898;28;20511;-52
2021/12/12 02:22:54;;;;;;;19.42;12.90;;;;;;;4.21;100.00;97152.41;5020971;28;20466;-52
2021/12/12 02:36:32;;;;;;;16.33;11.43;;;;;;;4.08;100.00;97148.81;5023762;28;20097;-49
2021/12/12 02:39:05;;;;;;;19.15;12.55;;;;;;;4.29;100.00;97138.91;5024783;28;20073;-53
2021/12/12 02:41:34;;;;;;;17.17;11.27;;;;;;;4.02;100.00;97139.56;5021898;28;20092;-57
2021/12/12 02:44:06;;;;;;;16.98;11.40;;;;;;;3.88;100.00;97147.31;5022799;28;20075;-51
2021/12/12 02:46:36;;;;;;;20.38;12.25;;;;;;;3.95;100.00;97150.44;5023953;28;20488;-51
2021/12/12 02:49:09;;;;;;;;;;;;;;;4.22;100.00;97163.69;5025184;28;20458;-47
2021/12/12 02:51:39;;;;;;;17.92;11.88;;;;;;;4.37;100.00;97149.75;5026287;28;20383;-53
2021/12/12 02:54:11;;;;;;;18.27;12.05;;;;;;;4.31;100.00;97157.94;5024674;28;20116;-48
2021/12/12 02:56:42;;;;;;;15.65;10.45;;;;;;;3.81;100.00;97165.09;5024826;28;20077;-49
2021/12/12 02:59:14;;;;;;;16.80;11.90;;;;;;;4.13;100.00;97165.06;5021292;28;20065;-48
2021/12/12 03:01:47;;;;;;;18.83;12.23;;;;;;;4.08;100.00;97163.63;5017386;28;20050;-49
2021/12/12 03:04:17;;;;;;;15.77;11.38;;;;;;;3.95;100.00;97155.66;5027879;28;20113;-49
2021/12/12 03:06:45;;;;;;;16.88;11.10;;;;;;;3.90;100.00;97165.53;5021708;28;20065;-48
2021/12/12 03:09:18;;;;;;;20.20;12.90;;;;;;;4.18;100.00;97175.22;5024287;28;20060;-54
2021/12/12 03:11:49;;;;;;;18.90;11.55;;;;;;;4.28;100.00;97172.00;5022045;28;20543;-48
2021/12/12 03:14:18;;;;;;;16.52;11.40;;;;;;;3.85;100.00;97172.75;5025020;28;20070;-53
2021/12/12 03:16:47;;;;;;;19.08;12.60;;;;;;;4.18;100.00;97172.63;5017729;28;20481;-52
2021/12/12 03:19:19;;;;;;;16.30;12.23;;;;;;;4.02;100.00;97170.03;5031837;28;20080;-47
2021/12/12 03:21:49;;;;;;;16.80;11.55;;;;;;;3.67;100.00;97159.81;5024321;28;20072;-54
2021/12/12 03:24:22;;;;;;;17.13;11.60;;;;;;;4.14;100.00;97169.34;5006135;28;20057;-50
2021/12/12 03:26:55;;;;;;;17.00;12.10;;;;;;;4.22;100.00;97166.28;5003926;28;20084;-49
2021/12/12 03:29:24;;;;;;;16.17;10.88;;;;;;;4.03;100.00;97176.94;5013016;28;20057;-47
2021/12/12 03:31:57;;;;;;;18.67;12.55;;;;;;;4.21;100.00;97172.44;5015989;28;20062;-54
2021/12/12 03:34:27;;;;;;;21.13;12.40;;;;;;;3.95;100.00;97174.75;5000695;28;20445;-49
2021/12/12 03:36:56;;;;;;;19.00;12.90;;;;;;;4.04;100.00;97165.56;5024368;28;20075;-46
2021/12/12 03:39:29;;;;;;;18.77;11.95;;;;;;;4.07;100.00;97168.03;5018100;28;20073;-53
2021/12/12 03:42:00;;;;;;;17.60;12.00;;;;;;;3.89;100.00;97166.44;5009980;28;20061;-47
2021/12/12 03:44:32;;;;;;;17.73;12.30;;;;;;;3.96;100.00;97176.47;5010061;28;20065;-47
2021/12/12 03:47:04;;;;;;;16.80;10.77;;;;;;;3.87;100.00;97178.72;5018942;28;20107;-48
2021/12/12 03:49:33;;;;;;;15.38;11.07;;;;;;;3.63;100.00;97170.50;5030315;28;20080;-48
2021/12/12 03:52:02;;;;;;;18.42;11.88;;;;;;;3.78;100.00;97167.03;5022216;28;20107;-49
2021/12/12 03:54:32;;;;;;;19.27;13.05;;;;;;;4.18;100.00;97170.00;5025180;28;20496;-49
2021/12/12 03:57:00;;;;;;;17.15;11.57;;;;;;;3.98;100.00;97171.97;5023513;28;20069;-47
2021/12/12 03:59:29;;;;;;;20.45;12.10;;;;;;;4.10;100.00;97169.63;5018377;28;20057;-47
2021/12/12 04:01:58;;;;;;;16.95;11.57;;;;;;;3.98;100.00;97169.38;5023371;28;20069;-50
2021/12/12 04:04:29;;;;;;;17.48;12.10;;;;;;;3.98;100.00;97165.91;5020340;28;20503;-46
2021/12/12 04:06:59;;;;;;;17.90;11.32;;;;;;;3.89;100.00;97169.91;5023369;28;20075;-48
2021/12/12 04:09:28;;;;;;;18.42;11.57;;;;;;;3.92;100.00;97174.09;5026649;28;20452;-48
2021/12/12 04:12:00;;;;;;;17.90;12.18;;;;;;;4.07;100.00;97186.28;5023291;28;20069;-53
2021/12/12 04:14:29;;;;;;;16.60;11.38;;;;;;;4.11;100.00;97179.97;5025028;28;20069;-50
2021/12/12 04:17:01;;;;;;;18.00;11.57;;;;;;;4.09;100.00;97201.84;5022021;28;20069;-47
2021/12/12 04:19:30;;;;;;;17.42;12.52;;;;;;;4.20;100.00;97194.28;5013288;28;20084;-47
2021/12/12 04:22:00;;;;;;;18.17;11.85;;;;;;;4.38;100.00;97193.22;5026029;28;20152;-49
2021/12/12 04:24:31;;;;;;;18.33;12.07;;;;;;;3.92;100.00;97198.44;5011993;28;20523;-47
2021/12/12 04:27:01;;;;;;;18.27;12.43;;;;;;;4.12;100.00;97202.50;5021287;28;20080;-53
2021/12/12 04:29:32;;;;;;;17.63;12.27;;;;;;;4.05;100.00;97207.22;5024104;28;20087;-49
2021/12/12 04:32:03;;;;;;;19.08;12.27;;;;;;;3.89;100.00;97211.66;5012768;28;20301;-48
2021/12/12 04:34:33;;;;;;;16.75;11.60;;;;;;;4.10;100.00;97224.44;4999274;28;20520;-51
2021/12/12 04:37:03;;;;;;;18.42;12.50;;;;;;;4.16;100.00;97224.91;5023025;28;20092;-52
2021/12/12 04:39:34;;;;;;;17.98;12.73;;;;;;;4.24;100.00;97227.94;5020877;28;20072;-54
2021/12/12 04:42:07;;;;;;;18.38;12.55;;;;;;;3.96;100.00;97227.81;5024041;28;20083;-50
2021/12/12 04:44:38;;;;;;;18.35;11.93;;;;;;;4.06;100.00;97239.41;5029642;28;20057;-50
2021/12/12 04:50:17;;;;;;;14.70;9.98;;;;;;;3.67;100.00;97240.66;4985249;28;20088;-50
2021/12/12 04:52:49;;;;;;;19.65;11.80;;;;;;;3.94;100.00;97248.75;5016213;28;20068;-46
2021/12/12 04:55:22;;;;;;;19.27;11.65;;;;;;;3.99;100.00;97246.75;5019965;28;20076;-53
2021/12/12 04:57:58;;;;;;;17.00;11.27;;;;;;;4.06;100.00;97249.84;5019555;28;20457;-48
2021/12/12 05:00:32;;;;;;;15.95;11.35;;;;;;;4.00;100.00;97250.19;5022177;28;20045;-49
2021/12/12 05:03:12;;;;;;;16.80;11.38;;;;;;;4.23;100.00;97257.59;5020667;28;20076;-50
2021/12/12 05:05:45;;;;;;;18.85;12.52;;;;;;;4.31;100.00;97253.72;5021215;28;20489;-50
2021/12/12 05:08:21;;;;;;;18.40;12.05;;;;;;;4.69;100.00;97260.19;5023133;28;20061;-48
2021/12/12 05:10:53;;;;;;;16.92;12.63;;;;;;;4.62;100.00;97263.25;5016883;28;20076;-47
2021/12/12 05:13:26;;;;;;;18.15;12.25;;;;;;;4.53;100.00;97268.06;5021674;28;20792;-50
2021/12/12 05:16:00;;;;;;;16.27;11.52;;;;;;;4.44;100.00;97270.34;5022634;28;20050;-49
2021/12/12 05:18:32;;;;;;;18.20;12.20;;;;;;;4.60;100.00;97270.31;5022541;28;20069;-52
2021/12/12 05:21:04;;;;;;;18.88;12.85;;;;;;;4.66;100.00;97272.59;5023933;28;20073;-49
2021/12/12 05:23:34;;;;;;;17.38;11.90;;;;;;;4.15;100.00;97282.44;5019607;28;20072;-50
2021/12/12 05:26:06;;;;;;;16.42;11.93;;;;;;;4.60;100.00;97281.59;5021038;28;20077;-49
2021/12/12 05:28:39;;;;;;;17.20;12.10;;;;;;;4.60;100.00;97283.38;5023726;28;20073;-49
2021/12/12 05:31:09;;;;;;;19.17;12.32;;;;;;;4.51;100.00;97289.97;5026678;28;20076;-48
2021/12/12 05:33:38;;;;;;;17.17;12.23;;;;;;;4.58;100.00;97288.72;5018325;28;20065;-46
2021/12/12 05:36:08;;;;;;;16.92;12.05;;;;;;;4.59;100.00;97285.16;5025508;28;20727;-50
2021/12/12 05:38:37;;;;;;;17.25;11.85;;;;;;;4.25;100.00;97276.59;5024496;28;20076;-48
2021/12/12 05:41:06;;;;;;;16.80;11.55;;;;;;;4.40;100.00;97281.88;5017772;28;20642;-50
2021/12/12 05:43:36;;;;;;;16.00;10.95;;;;;;;4.50;100.00;97270.84;5020436;28;20100;-47
2021/12/12 05:46:06;;;;;;;16.90;11.23;;;;;;;4.43;100.00;97266.88;5021688;28;20069;-48
2021/12/12 05:48:34;;;;;;;14.25;9.75;;;;;;;4.56;100.00;97274.03;5015443;28;20060;-49
2021/12/12 05:51:03;;;;;;;14.02;10.35;;;;;;;4.68;100.00;97275.94;5025993;28;20077;-46
2021/12/12 05:53:31;;;;;;;16.85;10.80;;;;;;;4.74;100.00;97283.44;5021559;28;20072;-50
2021/12/12 05:56:00;;;;;;;16.13;10.75;;;;;;;4.63;100.00;97280.59;5019415;28;20475;-47
2021/12/12 05:58:30;;;;;;;14.65;10.52;;;;;;;4.82;100.00;97293.44;5022730;28;20527;-49
2021/12/12 06:01:03;;;;;;;14.63;9.90;;;;;;;4.35;100.00;97294.38;5023491;28;20084;-46
2021/12/12 06:03:37;;;;;;;15.00;10.18;;;;;;;4.48;100.00;97284.94;5024114;28;20095;-50
2021/12/12 06:06:07;;;;;;;16.35;11.32;;;;;;;4.71;100.00;97286.22;5025450;28;20546;-48
2021/12/12 06:08:36;;;;;;;16.92;10.88;;;;;;;4.81;100.00;97294.38;5024265;28;20057;-49
2021/12/12 06:11:06;;;;;;;17.15;11.18;;;;;;;4.94;100.00;97301.41;5023254;28;20072;-48
2021/12/12 06:13:37;;;;;;;15.95;10.90;;;;;;;5.19;100.00;97308.66;5018804;28;20085;-48
2021/12/12 06:16:08;;;;;;;14.55;10.98;;;;;;;5.32;100.00;97307.94;5023899;28;20078;-50
2021/12/12 06:18:37;;;;;;;16.35;10.63;;;;;;;5.10;100.00;97308.38;5019855;28;20072;-48
2021/12/12 06:21:05;;;;;;;17.40;10.98;;;;;;;4.69;100.00;97312.44;5023340;28;20081;-49
2021/12/12 06:23:34;;;;;;;15.10;11.07;;;;;;;4.91;100.00;97308.59;5020438;28;20080;-49
2021/12/12 06:26:03;;;;;;;16.15;10.98;;;;;;;5.05;100.00;97308.63;5027768;28;20069;-47
2021/12/12 06:28:34;;;;;;;15.57;10.60;;;;;;;5.28;100.00;97309.91;5026971;28;20084;-49
2021/12/12 06:31:03;;;;;;;14.10;10.50;;;;;;;5.00;100.00;97313.28;5026672;28;20084;-47
2021/12/12 06:33:35;;;;;;;16.08;11.20;;;;;;;4.75;100.00;97322.56;5024005;28;20073;-50
2021/12/12 06:36:05;;;;;;;14.38;10.43;;;;;;;4.92;100.00;97318.97;5022160;28;20086;-49
2021/12/12 06:38:34;;;;;;;15.88;11.25;;;;;;;4.80;100.00;97324.88;5024691;28;20054;-50
2021/12/12 06:41:03;;;;;;;15.35;11.10;;;;;;;4.66;100.00;97330.91;5024682;28;20065;-49
2021/12/12 06:43:32;;;;;;;16.60;10.98;;;;;;;5.06;100.00;97325.16;5021727;28;20116;-51
2021/12/12 06:46:02;;;;;;;14.98;11.10;;;;;;;4.88;100.00;97327.91;5028406;28;20073;-50
2021/12/12 06:48:30;;;;;;;15.52;10.65;;;;;;;4.47;100.00;97330.22;5020641;28;20594;-51
2021/12/12 06:51:01;;;;;;;15.45;10.80;;;;;;;4.81;100.00;97326.56;5024488;28;20069;-50
2021/12/12 06:53:32;;;;;;;15.40;11.30;;;;;;;4.52;100.00;97331.69;5026101;28;20101;-48
2021/12/12 06:56:02;;;;;;;;;;;;;;;4.96;100.00;97336.16;5022859;28;20095;-46
2021/12/12 06:58:31;;;;;;;14.15;10.18;;;;;;;4.39;100.00;97335.91;5025169;28;20379;-48
2021/12/12 07:01:03;;;;;;;15.85;10.32;;;;;;;4.57;100.00;97344.47;5027030;28;20811;-49
2021/12/12 07:03:32;;;;;;;16.73;11.68;;;;;;;5.02;100.00;97348.00;5021639;28;20084;-50
2021/12/12 07:06:02;;;;;;;15.80;10.60;;;;;;;4.70;100.00;97345.47;5021470;28;20076;-52
2021/12/12 07:08:30;;;;;;;15.45;11.02;;;;;;;4.50;100.00;97348.34;5019914;28;20078;-49
2021/12/12 07:10:59;;;;;;;14.85;10.55;;;;;;;4.66;100.00;97346.56;5027089;28;20065;-49
2021/12/12 07:13:28;;;;;;;12.48;9.88;;;;;;;4.56;100.00;97348.03;5025301;28;20081;-49
2021/12/12 07:15:59;;;;;;;13.52;10.18;;;;;;;4.61;100.00;97352.97;5027191;28;20104;-51
2021/12/12 07:18:28;;;;;;;;;;;;;;;4.71;100.00;97357.63;5022273;28;20076;-49
2021/12/12 07:21:00;;;;;;;15.88;11.27;;;;;;;4.78;100.00;97363.31;5022866;28;19964;-50
2021/12/12 07:23:30;;;;;;;14.85;10.18;;;;;;;4.50;100.00;97362.25;5022778;28;20073;-51
2021/12/12 07:25:59;;;;;;;15.27;10.38;;;;;;;4.52;100.00;97368.25;5021907;28;20073;-50
2021/12/12 07:28:29;;;;;;;15.40;10.60;;;;;;;4.55;100.00;97374.25;5023211;28;20112;-51
2021/12/12 07:31:00;;;;;;;14.52;10.27;;;;;;;4.61;100.00;97377.34;5024294;28;20084;-46
2021/12/12 07:33:29;;;;;;;13.88;10.60;;;;;;;4.81;100.00;97378.00;5020179;28;20076;-47
2021/12/12 07:35:59;;;;;;;14.40;9.82;;;;;;;4.56;100.00;97375.91;5023394;28;20069;-50
2021/12/12 07:38:30;;;;;;;16.98;10.40;;;;;;;4.70;100.00;97376.81;5020998;28;20076;-48
2021/12/12 07:40:58;;;;;;;;;;;;;;;4.44;100.00;97387.84;5022022;28;20069;-50
2021/12/12 07:43:28;;;;;;;12.30;9.32;;;;;;;4.82;100.00;97388.38;5024476;28;19963;-47
2021/12/12 07:45:58;;;;;;;13.77;9.55;;;;;;;4.90;100.00;97386.16;5027846;28;20081;-48
2021/12/12 07:48:27;;;;;;;15.10;10.02;;;;;;;4.59;100.00;97388.81;5022265;28;20075;-46
2021/12/12 07:50:57;;;;;;;13.93;10.43;;;;;;;4.79;100.00;97383.31;5020928;28;20073;-51
2021/12/12 07:53:26;;;;;;;14.35;8.75;;;;;;;4.42;100.00;97397.56;5016604;28;20046;-47
2021/12/12 07:55:58;;;;;;;14.68;9.77;;;;;;;4.89;100.00;97394.09;5023989;28;20061;-49
2021/12/12 07:58:27;;;;;;;10.70;8.30;;;;;;;4.59;100.00;97386.19;5027779;28;20084;-50
2021/12/12 08:00:58;;;;;;;10.50;8.02;;;;;;;4.92;100.00;97391.28;5025021;28;20867;-46
2021/12/12 08:03:27;;;;;;;;;;;;;;;4.80;100.00;97394.59;5017939;28;20080;-49
2021/12/12 08:05:56;;;;;;;10.75;8.57;;;;;;;4.98;100.00;97389.16;5025510;28;19964;-48
2021/12/12 08:08:25;;;;;;;10.82;8.10;;;;;;;4.79;100.00;97390.31;5022324;28;20795;-53
2021/12/12 08:10:56;;;;;;;11.40;8.55;;;;;;;5.33;100.00;97381.06;5025103;28;20073;-46
2021/12/12 08:13:25;;;;;;;10.10;7.78;;;;;;;5.01;100.00;97380.31;5022278;28;20073;-46
2021/12/12 08:15:54;;;;;;;9.68;7.43;;;;;;;5.03;100.00;97382.88;5023632;28;20085;-49
2021/12/12 08:18:23;;;;;;;10.63;7.57;;;;;;;5.16;100.00;97389.03;5020382;28;20046;-47
2021/12/12 08:20:53;;;;;;;9.55;7.70;;;;;;;5.45;100.00;97395.22;5029909;28;20487;-52
2021/12/12 08:23:22;;;;;;;10.82;7.57;;;;;;;5.28;100.00;97388.34;5018228;28;20152;-48
2021/12/12 08:25:51;;;;;;;9.57;7.75;;;;;;;5.07;100.00;97390.44;5022650;28;20448;-48
2021/12/12 08:28:21;;;;;;;8.77;7.10;;;;;;;4.97;100.00;97386.66;5028949;28;20270;-50
2021/12/12 08:30:51;;;;;;;9.60;7.80;;;;;;;5.10;100.00;97385.03;5022347;28;20461;-51
2021/12/12 08:33:20;;;;;;;8.03;6.37;;;;;;;4.79;100.00;97380.69;5017593;28;20563;-48
2021/12/12 08:35:49;;;;;;;8.02;6.53;;;;;;;5.15;100.00;97393.44;5023592;28;20100;-52
2021/12/12 08:38:18;;;;;;;7.40;5.88;;;;;;;4.84;100.00;97396.94;5022081;28;20072;-47
2021/12/12 08:40:49;;;;;;;6.95;6.13;;;;;;;5.37;100.00;97393.06;5018697;28;20072;-49
2021/12/12 08:43:19;;;;;;;7.55;6.10;;;;;;;5.10;100.00;97398.09;5022740;28;20679;-46
2021/12/12 08:45:53;;;;;;;6.40;5.47;;;;;;;4.91;100.00;97394.84;5016326;28;20065;-46
2021/12/12 08:48:24;;;;;;;6.50;5.55;;;;;;;4.84;100.00;97394.34;5017852;28;20542;-46
2021/12/12 08:50:56;;;;;;;6.85;5.60;;;;;;;4.95;100.00;97394.56;5017889;28;20081;-47
2021/12/12 08:53:25;;;;;;;7.00;6.00;;;;;;;5.38;100.00;97392.13;5016060;28;20077;-51
2021/12/12 08:55:55;;;;;;;7.38;6.40;;;;;;;5.75;100.00;97395.19;5018756;28;20066;-50
2021/12/12 08:58:27;;;;;;;8.70;5.80;;;;;;;5.83;100.00;97395.56;5020697;28;20085;-49
2021/12/12 09:00:59;;;;;;;9.10;6.93;;;;;;;6.18;100.00;97390.81;5020636;28;20739;-50
2021/12/12 09:03:32;;;;;;;7.97;6.32;;;;;;;5.92;100.00;97388.94;5016310;28;20057;-50
2021/12/12 09:06:01;;;;;;;7.72;6.68;;;;;;;5.79;100.00;97391.44;5020350;28;20494;-49
2021/12/12 09:08:43;;;;;;;8.65;6.28;;;;;;;6.15;100.00;97388.38;5020222;28;20068;-52
2021/12/12 09:11:15;;;;;;;6.40;5.57;;;;;;;6.08;100.00;97396.72;5020787;28;20540;-51
2021/12/12 09:13:47;;;;;;;9.57;6.60;;;;;;;6.26;100.00;97387.72;5021090;28;20286;-44
2021/12/12 09:16:21;;;;;;;7.65;6.38;;;;;;;6.34;100.00;97385.47;5029277;28;20092;-47
2021/12/12 09:18:54;;;;;;;7.40;6.50;;;;;;;6.60;100.00;97394.31;5024844;28;20061;-47
2021/12/12 09:21:26;;;;;;;7.68;6.18;;;;;;;6.27;100.00;97399.91;5024055;28;20125;-46
2021/12/12 09:24:04;;;;;;;8.65;6.30;;;;;;;6.76;100.00;97398.59;5019401;28;20065;-45
2021/12/12 09:26:36;;;;;;;6.70;5.82;;;;;;;6.27;100.00;97399.91;5024902;28;20460;-50
2021/12/12 09:29:14;;;;;;;7.85;6.43;;;;;;;6.75;100.00;97403.00;5021937;28;20073;-45
2021/12/12 09:31:53;;;;;;;6.75;6.05;;;;;;;6.30;100.00;97402.34;5018254;28;20084;-52
2021/12/12 09:34:28;;;;;;;7.38;5.95;;;;;;;6.35;100.00;97407.28;5021055;28;20050;-53
2021/12/12 09:37:17;;;;;;;6.10;5.50;;;;;;;6.73;100.00;97393.53;5021228;28;20687;-50
2021/12/12 09:39:57;;;;;;;7.43;5.90;;;;;;;6.39;100.00;97404.34;5023781;28;20374;-50
2021/12/12 09:42:37;;;;;;;7.18;6.03;;;;;;;6.91;100.00;97405.47;5022619;28;20719;-51
2021/12/12 09:45:17;;;;;;;7.20;6.20;;;;;;;7.22;100.00;97398.22;5028659;28;20067;-45
2021/12/12 09:48:28;;;;;;;7.25;6.43;;;;;;;6.51;100.00;97410.63;5018749;28;20083;-53
2021/12/12 09:51:15;;;;;;;6.82;5.80;;;;;;;6.11;100.00;97409.63;5025198;28;20076;-47
2021/12/12 09:54:10;;;;;;;7.45;6.45;;;;;;;6.01;100.00;97404.09;5023395;28;20062;-46
2021/12/12 09:56:48;;;;;;;6.57;5.78;;;;;;;6.55;100.00;97388.53;5030994;28;20045;-50
2021/12/12 09:59:41;;;;;;;8.30;6.35;;;;;;;6.65;100.00;97384.38;5025168;28;20065;-49
2021/12/12 10:02:18;;;;;;;8.40;7.13;;;;;;;6.27;100.00;97381.56;5009756;28;20068;-50
2021/12/12 10:04:57;;;;;;;8.43;6.57;;;;;;;6.15;100.00;97384.94;5027016;28;20069;-51
2021/12/12 10:07:35;;;;;;;7.65;6.25;;;;;;;5.93;100.00;97383.63;5022432;28;20125;-46
2021/12/12 10:10:07;;;;;;;9.65;6.13;;;;;;;5.60;100.00;97383.00;5032894;28;20770;-48
2021/12/12 10:12:39;;;;;;;6.57;5.53;;;;;;;5.55;100.00;97374.59;5024254;28;20099;-48
2021/12/12 10:15:11;;;;;;;8.15;6.30;;;;;;;5.39;100.00;97370.25;5023864;28;20588;-48
2021/12/12 10:17:44;;;;;;;10.48;6.70;;;;;;;5.71;100.00;97378.81;5025399;28;20519;-50
2021/12/12 10:20:21;;;;;;;7.90;6.25;;;;;;;5.87;100.00;97364.78;5022836;28;20448;-48
2021/12/12 10:23:02;;;;;;;8.57;6.85;;;;;;;5.53;100.00;97365.97;5021131;28;20069;-49
2021/12/12 10:25:33;;;;;;;7.65;6.43;;;;;;;5.30;100.00;97368.19;5029225;28;20081;-52
2021/12/12 10:28:11;;;;;;;8.80;6.93;;;;;;;5.38;100.00;97365.13;5028108;28;20072;-49
2021/12/12 10:30:43;;;;;;;8.80;7.25;;;;;;;5.49;100.00;97365.31;5021171;28;20648;-53
2021/12/12 10:33:15;;;;;;;8.43;6.13;;;;;;;5.30;100.00;97368.19;5018944;28;20076;-49
2021/12/12 10:35:50;;;;;;;12.05;7.18;;;;;;;5.74;100.00;97362.06;5019819;28;20068;-50
2021/12/12 10:38:21;;;;;;;8.73;6.53;;;;;;;5.38;100.00;97358.13;5021445;28;20141;-53
2021/12/12 10:40:52;;;;;;;8.65;6.63;;;;;;;5.43;100.00;97356.06;5028598;28;20069;-53
2021/12/12 10:43:27;;;;;;;10.00;7.13;;;;;;;5.62;100.00;97352.38;5024732;28;20100;-50
2021/12/12 10:45:59;;;;;;;9.82;7.22;;;;;;;5.63;100.00;97348.81;5022472;28;20391;-49
2021/12/12 10:48:32;;;;;;;9.27;7.40;;;;;;;6.00;100.00;97346.59;5019525;28;20463;-53
2021/12/12 10:51:07;;;;;;;8.80;6.22;;;;;;;5.61;100.00;97348.91;5024175;28;20061;-49
2021/12/12 10:53:37;;;;;;;10.25;7.43;;;;;;;5.74;100.00;97351.59;5021736;28;20065;-54
2021/12/12 10:56:09;;;;;;;10.40;8.05;;;;;;;5.66;100.00;97356.47;5025525;28;20474;-55
2021/12/12 10:58:42;;;;;;;12.95;9.05;;;;;;;5.77;100.00;97353.19;5020524;28;20076;-51
2021/12/12 11:01:13;;;;;;;10.77;7.57;;;;;;;6.02;100.00;97334.25;5018612;28;20080;-51
2021/12/12 11:03:48;;;;;;;10.70;8.48;;;;;;;5.98;100.00;97335.38;5014102;28;20076;-53
2021/12/12 11:06:23;;;;;;;10.57;7.82;;;;;;;5.83;100.00;97332.72;5022592;28;20070;-54
2021/12/12 11:08:55;;;;;;;10.18;7.50;;;;;;;6.05;100.00;97336.69;5016405;28;20061;-50
2021/12/12 11:11:27;;;;;;;12.48;8.50;;;;;;;6.15;100.00;97337.78;5019841;28;20355;-54
2021/12/12 11:14:03;;;;;;;10.25;7.32;;;;;;;6.06;100.00;97331.34;5023284;28;20064;-48
2021/12/12 11:16:36;;;;;;;12.00;9.00;;;;;;;6.36;100.00;97330.34;5017631;28;20742;-48
2021/12/12 11:19:09;;;;;;;11.10;8.25;;;;;;;6.23;100.00;97325.06;5024426;28;20092;-52
2021/12/12 11:21:44;;;;;;;10.00;7.80;;;;;;;6.48;100.00;97323.50;5022138;28;20065;-50
2021/12/12 11:24:17;;;;;;;11.23;8.13;;;;;;;6.49;100.00;97317.31;5017974;28;20452;-50
2021/12/12 11:26:53;;;;;;;11.93;7.88;;;;;;;6.23;100.00;97314.59;5025173;28;20068;-51
2021/12/12 11:29:28;;;;;;;11.43;7.97;;;;;;;6.58;100.00;97314.13;5020053;28;20122;-51
2021/12/12 11:32:01;;;;;;;11.20;8.23;;;;;;;6.56;100.00;97310.75;5026451;28;20065;-52
2021/12/12 11:34:47;;;;;;;11.52;7.97;;;;;;;6.98;100.00;97314.13;5023515;28;20527;-48
2021/12/12 11:37:23;;;;;;;13.15;8.57;;;;;;;7.01;100.00;97313.94;5021683;28;20092;-46
2021/12/12 11:39:54;;;;;;;10.07;7.55;;;;;;;6.93;100.00;97321.47;5019856;28;20382;-51
2021/12/12 11:42:26;;;;;;;10.40;8.10;;;;;;;7.12;100.00;97322.78;5016044;28;20080;-51
2021/12/12 11:45:03;;;;;;;10.30;7.90;;;;;;;7.34;100.00;97321.34;5024578;28;20069;-49
2021/12/12 11:47:43;;;;;;;10.90;7.45;;;;;;;6.96;100.00;97313.41;5022332;28;20065;-53
2021/12/12 11:50:14;;;;;;;10.95;7.28;;;;;;;7.00;100.00;97312.25;5020715;28;20523;-48
2021/12/12 11:52:51;;;;;;;9.98;7.43;;;;;;;7.66;100.00;97310.44;5020357;28;20080;-54
2021/12/12 11:55:25;;;;;;;9.23;7.00;;;;;;;7.22;100.00;97301.16;5021650;28;20076;-52
2021/12/12 11:57:56;;;;;;;9.10;7.00;;;;;;;7.22;100.00;97309.03;5022308;28;20660;-52
2021/12/12 12:00:30;;;;;;;10.40;7.80;;;;;;;7.26;100.00;97307.88;5019866;28;20077;-51